sensor_id;sensor_type;location;lat;lon;timestamp;P1;durP1;ratioP1;P2;durP2;ratioP2
11568;SDS011;5840;46.894;15.542;2023-05-07T00:00:41;10.30;;;9.47;;
11568;SDS011;5840;46.894;15.542;2023-05-07T00:03:08;9.17;;;8.57;;
11568;SDS011;5840;46.894;15.542;2023-05-07T00:05:36;10.10;;;9.40;;
11568;SDS011;5840;46.894;15.542;2023-05-07T00:08:04;10.03;;;9.23;;
11568;SDS011;5840;46.894;15.542;2023-05-07T00:10:31;10.80;;;9.90;;
11568;SDS011;5840;46.894;15.542;2023-05-07T00:12:58;11.70;;;10.80;;
11568;SDS011;5840;46.894;15.542;2023-05-07T00:15:26;10.27;;;9.57;;
11568;SDS011;5840;46.894;15.542;2023-05-07T00:17:53;12.10;;;11.10;;
11568;SDS011;5840;46.894;15.542;2023-05-07T00:20:22;12.97;;;11.97;;
11568;SDS011;5840;46.894;15.542;2023-05-07T00:22:49;14.10;;;13.00;;
11568;SDS011;5840;46.894;15.542;2023-05-07T00:25:16;14.20;;;12.90;;
11568;SDS011;5840;46.894;15.542;2023-05-07T00:27:44;16.10;;;14.70;;
11568;SDS011;5840;46.894;15.542;2023-05-07T00:30:11;14.87;;;13.70;;
11568;SDS011;5840;46.894;15.542;2023-05-07T00:32:40;13.60;;;12.50;;
11568;SDS011;5840;46.894;15.542;2023-05-07T00:35:07;16.23;;;14.83;;
11568;SDS011;5840;46.894;15.542;2023-05-07T00:37:35;15.47;;;14.27;;
11568;SDS011;5840;46.894;15.542;2023-05-07T00:40:02;17.00;;;15.70;;
11568;SDS011;5840;46.894;15.542;2023-05-07T00:42:32;14.73;;;13.53;;
11568;SDS011;5840;46.894;15.542;2023-05-07T00:44:59;14.50;;;13.40;;
11568;SDS011;5840;46.894;15.542;2023-05-07T00:47:26;13.33;;;12.23;;
11568;SDS011;5840;46.894;15.542;2023-05-07T00:49:54;13.77;;;12.67;;
11568;SDS011;5840;46.894;15.542;2023-05-07T00:52:21;14.17;;;13.07;;
11568;SDS011;5840;46.894;15.542;2023-05-07T00:54:51;13.83;;;12.73;;
11568;SDS011;5840;46.894;15.542;2023-05-07T00:57:20;15.97;;;14.67;;
11568;SDS011;5840;46.894;15.542;2023-05-07T00:59:48;14.47;;;13.23;;
11568;SDS011;5840;46.894;15.542;2023-05-07T01:02:15;14.60;;;13.20;;
11568;SDS011;5840;46.894;15.542;2023-05-07T01:04:42;28.97;;;15.67;;
11568;SDS011;5840;46.894;15.542;2023-05-07T01:07:11;15.63;;;14.40;;
11568;SDS011;5840;46.894;15.542;2023-05-07T01:09:38;25.47;;;18.53;;
11568;SDS011;5840;46.894;15.542;2023-05-07T01:12:06;17.97;;;16.67;;
11568;SDS011;5840;46.894;15.542;2023-05-07T01:14:34;16.73;;;15.33;;
11568;SDS011;5840;46.894;15.542;2023-05-07T01:17:01;18.43;;;17.00;;
11568;SDS011;5840;46.894;15.542;2023-05-07T01:19:28;17.77;;;16.37;;
11568;SDS011;5840;46.894;15.542;2023-05-07T01:21:58;16.77;;;15.33;;
11568;SDS011;5840;46.894;15.542;2023-05-07T01:24:31;17.63;;;16.23;;
11568;SDS011;5840;46.894;15.542;2023-05-07T01:26:58;17.70;;;16.30;;
11568;SDS011;5840;46.894;15.542;2023-05-07T01:29:26;17.23;;;15.77;;
11568;SDS011;5840;46.894;15.542;2023-05-07T01:31:53;15.40;;;14.23;;
11568;SDS011;5840;46.894;15.542;2023-05-07T01:34:22;16.40;;;15.10;;
11568;SDS011;5840;46.894;15.542;2023-05-07T01:36:53;16.67;;;15.27;;
11568;SDS011;5840;46.894;15.542;2023-05-07T01:39:23;15.80;;;14.43;;
11568;SDS011;5840;46.894;15.542;2023-05-07T01:41:53;20.63;;;15.23;;
11568;SDS011;5840;46.894;15.542;2023-05-07T01:44:21;15.67;;;14.37;;
11568;SDS011;5840;46.894;15.542;2023-05-07T01:46:49;15.67;;;14.27;;
11568;SDS011;5840;46.894;15.542;2023-05-07T01:49:16;17.43;;;15.93;;
11568;SDS011;5840;46.894;15.542;2023-05-07T01:51:43;15.87;;;14.67;;
11568;SDS011;5840;46.894;15.542;2023-05-07T01:54:10;17.80;;;15.73;;
11568;SDS011;5840;46.894;15.542;2023-05-07T01:56:37;16.30;;;15.00;;
11568;SDS011;5840;46.894;15.542;2023-05-07T01:59:05;16.13;;;14.77;;
11568;SDS011;5840;46.894;15.542;2023-05-07T02:01:32;16.03;;;14.73;;
11568;SDS011;5840;46.894;15.542;2023-05-07T02:03:59;16.80;;;15.20;;
11568;SDS011;5840;46.894;15.542;2023-05-07T02:06:26;15.57;;;14.37;;
11568;SDS011;5840;46.894;15.542;2023-05-07T02:08:53;15.30;;;14.10;;
11568;SDS011;5840;46.894;15.542;2023-05-07T02:11:20;15.23;;;14.10;;
11568;SDS011;5840;46.894;15.542;2023-05-07T02:13:47;14.33;;;13.20;;
11568;SDS011;5840;46.894;15.542;2023-05-07T02:16:15;13.03;;;12.03;;
11568;SDS011;5840;46.894;15.542;2023-05-07T02:18:42;13.33;;;12.23;;
11568;SDS011;5840;46.894;15.542;2023-05-07T02:21:09;12.27;;;11.37;;
11568;SDS011;5840;46.894;15.542;2023-05-07T02:23:36;11.70;;;10.80;;
11568;SDS011;5840;46.894;15.542;2023-05-07T02:26:03;12.00;;;11.00;;
11568;SDS011;5840;46.894;15.542;2023-05-07T02:28:30;10.87;;;10.07;;
11568;SDS011;5840;46.894;15.542;2023-05-07T02:30:57;9.83;;;9.03;;
11568;SDS011;5840;46.894;15.542;2023-05-07T02:33:27;10.70;;;10.00;;
11568;SDS011;5840;46.894;15.542;2023-05-07T02:35:53;11.03;;;10.30;;
11568;SDS011;5840;46.894;15.542;2023-05-07T02:38:20;10.93;;;10.13;;
11568;SDS011;5840;46.894;15.542;2023-05-07T02:40:48;11.33;;;10.53;;
11568;SDS011;5840;46.894;15.542;2023-05-07T02:43:14;11.07;;;10.10;;
11568;SDS011;5840;46.894;15.542;2023-05-07T02:45:42;10.93;;;10.10;;
11568;SDS011;5840;46.894;15.542;2023-05-07T02:48:09;10.03;;;9.23;;
11568;SDS011;5840;46.894;15.542;2023-05-07T02:50:37;9.10;;;8.50;;
11568;SDS011;5840;46.894;15.542;2023-05-07T02:53:04;9.27;;;8.30;;
11568;SDS011;5840;46.894;15.542;2023-05-07T02:55:31;9.00;;;8.30;;
11568;SDS011;5840;46.894;15.542;2023-05-07T02:57:58;9.27;;;8.60;;
11568;SDS011;5840;46.894;15.542;2023-05-07T03:00:25;8.00;;;7.40;;
11568;SDS011;5840;46.894;15.542;2023-05-07T03:02:52;8.37;;;7.77;;
11568;SDS011;5840;46.894;15.542;2023-05-07T03:05:19;8.30;;;7.70;;
11568;SDS011;5840;46.894;15.542;2023-05-07T03:07:47;8.10;;;7.53;;
11568;SDS011;5840;46.894;15.542;2023-05-07T03:10:14;7.27;;;6.77;;
11568;SDS011;5840;46.894;15.542;2023-05-07T03:12:41;7.17;;;6.77;;
11568;SDS011;5840;46.894;15.542;2023-05-07T03:15:09;7.80;;;7.30;;
11568;SDS011;5840;46.894;15.542;2023-05-07T03:17:36;8.13;;;7.50;;
11568;SDS011;5840;46.894;15.542;2023-05-07T03:20:03;7.70;;;7.10;;
11568;SDS011;5840;46.894;15.542;2023-05-07T03:22:32;7.33;;;6.83;;
11568;SDS011;5840;46.894;15.542;2023-05-07T03:25:00;8.03;;;7.43;;
11568;SDS011;5840;46.894;15.542;2023-05-07T03:27:27;9.37;;;8.73;;
11568;SDS011;5840;46.894;15.542;2023-05-07T03:29:54;9.70;;;9.00;;
11568;SDS011;5840;46.894;15.542;2023-05-07T03:32:20;9.73;;;9.03;;
11568;SDS011;5840;46.894;15.542;2023-05-07T03:34:47;9.30;;;8.67;;
11568;SDS011;5840;46.894;15.542;2023-05-07T03:37:14;9.77;;;8.90;;
11568;SDS011;5840;46.894;15.542;2023-05-07T03:39:41;8.73;;;8.13;;
11568;SDS011;5840;46.894;15.542;2023-05-07T03:42:09;9.40;;;8.80;;
11568;SDS011;5840;46.894;15.542;2023-05-07T03:44:36;9.20;;;8.50;;
11568;SDS011;5840;46.894;15.542;2023-05-07T03:47:03;8.50;;;7.70;;
11568;SDS011;5840;46.894;15.542;2023-05-07T03:49:31;8.07;;;7.57;;
11568;SDS011;5840;46.894;15.542;2023-05-07T03:51:57;7.57;;;6.90;;
11568;SDS011;5840;46.894;15.542;2023-05-07T03:54:24;7.90;;;7.20;;
11568;SDS011;5840;46.894;15.542;2023-05-07T03:56:51;7.67;;;7.17;;
11568;SDS011;5840;46.894;15.542;2023-05-07T03:59:19;7.10;;;6.57;;
11568;SDS011;5840;46.894;15.542;2023-05-07T04:01:46;6.20;;;5.67;;
11568;SDS011;5840;46.894;15.542;2023-05-07T04:04:13;6.47;;;5.97;;
11568;SDS011;5840;46.894;15.542;2023-05-07T04:06:40;5.80;;;5.40;;
11568;SDS011;5840;46.894;15.542;2023-05-07T04:09:07;5.87;;;5.37;;
11568;SDS011;5840;46.894;15.542;2023-05-07T04:11:35;6.40;;;6.00;;
11568;SDS011;5840;46.894;15.542;2023-05-07T04:14:02;5.87;;;5.50;;
11568;SDS011;5840;46.894;15.542;2023-05-07T04:16:30;6.00;;;5.60;;
11568;SDS011;5840;46.894;15.542;2023-05-07T04:18:57;5.70;;;5.30;;
11568;SDS011;5840;46.894;15.542;2023-05-07T04:21:23;5.30;;;5.00;;
11568;SDS011;5840;46.894;15.542;2023-05-07T04:23:51;5.47;;;5.07;;
11568;SDS011;5840;46.894;15.542;2023-05-07T04:26:18;4.70;;;4.40;;
11568;SDS011;5840;46.894;15.542;2023-05-07T04:28:46;4.73;;;4.33;;
11568;SDS011;5840;46.894;15.542;2023-05-07T04:31:13;4.60;;;4.20;;
11568;SDS011;5840;46.894;15.542;2023-05-07T04:33:41;4.97;;;4.57;;
11568;SDS011;5840;46.894;15.542;2023-05-07T04:36:08;5.27;;;4.87;;
11568;SDS011;5840;46.894;15.542;2023-05-07T04:38:35;5.30;;;4.90;;
11568;SDS011;5840;46.894;15.542;2023-05-07T04:41:04;4.93;;;4.63;;
11568;SDS011;5840;46.894;15.542;2023-05-07T04:43:31;4.93;;;4.63;;
11568;SDS011;5840;46.894;15.542;2023-05-07T04:45:59;5.57;;;5.23;;
11568;SDS011;5840;46.894;15.542;2023-05-07T04:48:25;5.73;;;5.37;;
11568;SDS011;5840;46.894;15.542;2023-05-07T04:50:55;5.43;;;5.03;;
11568;SDS011;5840;46.894;15.542;2023-05-07T04:53:22;5.57;;;5.07;;
11568;SDS011;5840;46.894;15.542;2023-05-07T04:55:54;5.73;;;5.30;;
11568;SDS011;5840;46.894;15.542;2023-05-07T04:58:21;6.00;;;5.60;;
11568;SDS011;5840;46.894;15.542;2023-05-07T05:00:48;6.50;;;6.00;;
11568;SDS011;5840;46.894;15.542;2023-05-07T05:03:15;6.27;;;5.77;;
11568;SDS011;5840;46.894;15.542;2023-05-07T05:05:42;6.00;;;5.60;;
11568;SDS011;5840;46.894;15.542;2023-05-07T05:08:11;5.40;;;5.00;;
11568;SDS011;5840;46.894;15.542;2023-05-07T05:10:38;5.10;;;4.70;;
11568;SDS011;5840;46.894;15.542;2023-05-07T05:13:08;5.40;;;5.10;;
11568;SDS011;5840;46.894;15.542;2023-05-07T05:15:37;6.07;;;5.60;;
11568;SDS011;5840;46.894;15.542;2023-05-07T05:18:04;6.00;;;5.60;;
11568;SDS011;5840;46.894;15.542;2023-05-07T05:20:31;5.97;;;5.57;;
11568;SDS011;5840;46.894;15.542;2023-05-07T05:22:58;6.77;;;6.30;;
11568;SDS011;5840;46.894;15.542;2023-05-07T05:25:26;6.03;;;5.53;;
11568;SDS011;5840;46.894;15.542;2023-05-07T05:27:53;6.13;;;5.73;;
11568;SDS011;5840;46.894;15.542;2023-05-07T05:30:20;6.90;;;6.40;;
11568;SDS011;5840;46.894;15.542;2023-05-07T05:32:47;7.13;;;6.63;;
11568;SDS011;5840;46.894;15.542;2023-05-07T05:35:14;6.97;;;6.47;;
11568;SDS011;5840;46.894;15.542;2023-05-07T05:37:41;5.83;;;5.43;;
11568;SDS011;5840;46.894;15.542;2023-05-07T05:40:08;6.70;;;6.20;;
11568;SDS011;5840;46.894;15.542;2023-05-07T05:42:37;7.03;;;6.53;;
11568;SDS011;5840;46.894;15.542;2023-05-07T05:45:04;6.30;;;5.90;;
11568;SDS011;5840;46.894;15.542;2023-05-07T05:47:32;6.80;;;6.30;;
11568;SDS011;5840;46.894;15.542;2023-05-07T05:49:59;7.03;;;6.53;;
11568;SDS011;5840;46.894;15.542;2023-05-07T05:52:25;5.77;;;5.40;;
11568;SDS011;5840;46.894;15.542;2023-05-07T05:54:53;6.47;;;6.07;;
11568;SDS011;5840;46.894;15.542;2023-05-07T05:57:20;6.40;;;6.00;;
11568;SDS011;5840;46.894;15.542;2023-05-07T05:59:48;7.53;;;7.03;;
11568;SDS011;5840;46.894;15.542;2023-05-07T06:02:15;6.67;;;6.17;;
11568;SDS011;5840;46.894;15.542;2023-05-07T06:04:42;7.00;;;6.30;;
11568;SDS011;5840;46.894;15.542;2023-05-07T06:07:08;7.27;;;6.77;;
11568;SDS011;5840;46.894;15.542;2023-05-07T06:09:36;6.97;;;6.47;;
11568;SDS011;5840;46.894;15.542;2023-05-07T06:12:03;6.50;;;6.10;;
11568;SDS011;5840;46.894;15.542;2023-05-07T06:14:30;6.33;;;5.83;;
11568;SDS011;5840;46.894;15.542;2023-05-07T06:16:58;6.23;;;5.73;;
11568;SDS011;5840;46.894;15.542;2023-05-07T06:19:25;6.73;;;6.23;;
11568;SDS011;5840;46.894;15.542;2023-05-07T06:21:53;6.50;;;6.00;;
11568;SDS011;5840;46.894;15.542;2023-05-07T06:24:21;6.63;;;6.13;;
11568;SDS011;5840;46.894;15.542;2023-05-07T06:26:48;6.13;;;5.73;;
11568;SDS011;5840;46.894;15.542;2023-05-07T06:29:15;6.37;;;5.97;;
11568;SDS011;5840;46.894;15.542;2023-05-07T06:31:42;6.20;;;5.80;;
11568;SDS011;5840;46.894;15.542;2023-05-07T06:34:10;6.70;;;6.20;;
11568;SDS011;5840;46.894;15.542;2023-05-07T06:36:39;7.30;;;6.80;;
11568;SDS011;5840;46.894;15.542;2023-05-07T06:39:06;6.57;;;6.07;;
11568;SDS011;5840;46.894;15.542;2023-05-07T06:41:33;6.50;;;5.90;;
11568;SDS011;5840;46.894;15.542;2023-05-07T06:44:00;7.20;;;6.50;;
11568;SDS011;5840;46.894;15.542;2023-05-07T06:46:27;7.20;;;6.70;;
11568;SDS011;5840;46.894;15.542;2023-05-07T06:48:54;7.33;;;6.83;;
11568;SDS011;5840;46.894;15.542;2023-05-07T06:51:23;7.20;;;6.70;;
11568;SDS011;5840;46.894;15.542;2023-05-07T06:53:50;7.20;;;6.43;;
11568;SDS011;5840;46.894;15.542;2023-05-07T06:56:17;6.43;;;6.03;;
11568;SDS011;5840;46.894;15.542;2023-05-07T06:58:44;7.47;;;6.87;;
11568;SDS011;5840;46.894;15.542;2023-05-07T07:01:11;7.53;;;6.93;;
11568;SDS011;5840;46.894;15.542;2023-05-07T07:03:38;7.43;;;6.87;;
11568;SDS011;5840;46.894;15.542;2023-05-07T07:06:05;7.10;;;6.63;;
11568;SDS011;5840;46.894;15.542;2023-05-07T07:08:33;7.53;;;7.03;;
11568;SDS011;5840;46.894;15.542;2023-05-07T07:11:00;7.60;;;6.93;;
11568;SDS011;5840;46.894;15.542;2023-05-07T07:13:27;8.00;;;7.40;;
11568;SDS011;5840;46.894;15.542;2023-05-07T07:15:54;7.23;;;6.70;;
11568;SDS011;5840;46.894;15.542;2023-05-07T07:18:21;7.63;;;6.90;;
11568;SDS011;5840;46.894;15.542;2023-05-07T07:20:48;7.47;;;6.97;;
11568;SDS011;5840;46.894;15.542;2023-05-07T07:23:15;6.63;;;6.23;;
11568;SDS011;5840;46.894;15.542;2023-05-07T07:25:43;7.47;;;6.97;;
11568;SDS011;5840;46.894;15.542;2023-05-07T07:28:10;7.90;;;7.37;;
11568;SDS011;5840;46.894;15.542;2023-05-07T07:30:37;7.47;;;6.97;;
11568;SDS011;5840;46.894;15.542;2023-05-07T07:33:04;6.10;;;5.70;;
11568;SDS011;5840;46.894;15.542;2023-05-07T07:35:32;6.57;;;6.17;;
11568;SDS011;5840;46.894;15.542;2023-05-07T07:37:58;6.43;;;6.03;;
11568;SDS011;5840;46.894;15.542;2023-05-07T07:40:26;8.00;;;7.40;;
11568;SDS011;5840;46.894;15.542;2023-05-07T07:42:54;6.80;;;6.30;;
11568;SDS011;5840;46.894;15.542;2023-05-07T07:45:22;6.70;;;6.20;;
11568;SDS011;5840;46.894;15.542;2023-05-07T07:47:49;6.43;;;6.03;;
11568;SDS011;5840;46.894;15.542;2023-05-07T07:50:16;6.63;;;6.23;;
11568;SDS011;5840;46.894;15.542;2023-05-07T07:52:43;6.77;;;6.27;;
11568;SDS011;5840;46.894;15.542;2023-05-07T07:55:10;6.83;;;6.43;;
11568;SDS011;5840;46.894;15.542;2023-05-07T07:57:37;6.70;;;6.13;;
11568;SDS011;5840;46.894;15.542;2023-05-07T08:00:06;7.10;;;6.60;;
11568;SDS011;5840;46.894;15.542;2023-05-07T08:02:34;6.67;;;6.17;;
11568;SDS011;5840;46.894;15.542;2023-05-07T08:05:01;6.93;;;6.43;;
11568;SDS011;5840;46.894;15.542;2023-05-07T08:07:28;6.63;;;6.23;;
11568;SDS011;5840;46.894;15.542;2023-05-07T08:09:55;6.27;;;5.87;;
11568;SDS011;5840;46.894;15.542;2023-05-07T08:12:22;6.83;;;6.33;;
11568;SDS011;5840;46.894;15.542;2023-05-07T08:14:49;5.87;;;5.47;;
11568;SDS011;5840;46.894;15.542;2023-05-07T08:17:17;5.97;;;5.57;;
11568;SDS011;5840;46.894;15.542;2023-05-07T08:19:47;6.07;;;5.67;;
11568;SDS011;5840;46.894;15.542;2023-05-07T08:22:13;6.10;;;5.70;;
11568;SDS011;5840;46.894;15.542;2023-05-07T08:24:40;6.23;;;5.83;;
11568;SDS011;5840;46.894;15.542;2023-05-07T08:27:07;6.70;;;6.20;;
11568;SDS011;5840;46.894;15.542;2023-05-07T08:29:34;5.87;;;5.47;;
11568;SDS011;5840;46.894;15.542;2023-05-07T08:32:01;6.13;;;5.73;;
11568;SDS011;5840;46.894;15.542;2023-05-07T08:34:29;5.97;;;5.57;;
11568;SDS011;5840;46.894;15.542;2023-05-07T08:36:56;6.10;;;5.60;;
11568;SDS011;5840;46.894;15.542;2023-05-07T08:39:23;7.20;;;5.80;;
11568;SDS011;5840;46.894;15.542;2023-05-07T08:41:50;5.80;;;5.40;;
11568;SDS011;5840;46.894;15.542;2023-05-07T08:44:21;6.00;;;5.57;;
11568;SDS011;5840;46.894;15.542;2023-05-07T08:46:51;5.67;;;5.27;;
11568;SDS011;5840;46.894;15.542;2023-05-07T08:49:20;6.47;;;6.00;;
11568;SDS011;5840;46.894;15.542;2023-05-07T08:51:49;6.03;;;5.63;;
11568;SDS011;5840;46.894;15.542;2023-05-07T08:54:16;5.90;;;5.40;;
11568;SDS011;5840;46.894;15.542;2023-05-07T08:56:44;6.47;;;5.87;;
11568;SDS011;5840;46.894;15.542;2023-05-07T08:59:11;5.50;;;5.20;;
11568;SDS011;5840;46.894;15.542;2023-05-07T09:01:38;6.07;;;5.70;;
11568;SDS011;5840;46.894;15.542;2023-05-07T09:04:05;6.13;;;5.53;;
11568;SDS011;5840;46.894;15.542;2023-05-07T09:06:33;6.30;;;5.90;;
11568;SDS011;5840;46.894;15.542;2023-05-07T09:09:01;5.30;;;4.90;;
11568;SDS011;5840;46.894;15.542;2023-05-07T09:11:30;6.20;;;5.80;;
11568;SDS011;5840;46.894;15.542;2023-05-07T09:13:57;5.80;;;5.40;;
11568;SDS011;5840;46.894;15.542;2023-05-07T09:16:26;5.70;;;5.40;;
11568;SDS011;5840;46.894;15.542;2023-05-07T09:18:56;6.57;;;6.07;;
11568;SDS011;5840;46.894;15.542;2023-05-07T09:21:24;5.70;;;5.30;;
11568;SDS011;5840;46.894;15.542;2023-05-07T09:23:52;5.60;;;5.20;;
11568;SDS011;5840;46.894;15.542;2023-05-07T09:26:22;5.60;;;5.20;;
11568;SDS011;5840;46.894;15.542;2023-05-07T09:28:49;5.33;;;4.83;;
11568;SDS011;5840;46.894;15.542;2023-05-07T09:31:16;5.73;;;5.33;;
11568;SDS011;5840;46.894;15.542;2023-05-07T09:33:43;5.27;;;4.93;;
11568;SDS011;5840;46.894;15.542;2023-05-07T09:36:10;5.90;;;5.50;;
11568;SDS011;5840;46.894;15.542;2023-05-07T09:38:37;5.83;;;5.43;;
11568;SDS011;5840;46.894;15.542;2023-05-07T09:41:05;5.77;;;5.37;;
11568;SDS011;5840;46.894;15.542;2023-05-07T09:43:34;5.97;;;5.60;;
11568;SDS011;5840;46.894;15.542;2023-05-07T09:46:03;5.57;;;5.10;;
11568;SDS011;5840;46.894;15.542;2023-05-07T09:48:34;5.17;;;4.87;;
11568;SDS011;5840;46.894;15.542;2023-05-07T09:51:06;5.93;;;5.53;;
11568;SDS011;5840;46.894;15.542;2023-05-07T09:53:43;5.30;;;4.90;;
11568;SDS011;5840;46.894;15.542;2023-05-07T09:56:12;5.70;;;5.30;;
11568;SDS011;5840;46.894;15.542;2023-05-07T09:58:42;4.70;;;4.40;;
11568;SDS011;5840;46.894;15.542;2023-05-07T10:01:11;5.40;;;5.00;;
11568;SDS011;5840;46.894;15.542;2023-05-07T10:03:39;4.97;;;4.67;;
11568;SDS011;5840;46.894;15.542;2023-05-07T10:06:08;6.13;;;5.63;;
11568;SDS011;5840;46.894;15.542;2023-05-07T10:08:35;5.67;;;5.27;;
11568;SDS011;5840;46.894;15.542;2023-05-07T10:11:03;5.30;;;4.93;;
11568;SDS011;5840;46.894;15.542;2023-05-07T10:13:31;4.90;;;4.60;;
11568;SDS011;5840;46.894;15.542;2023-05-07T10:16:02;5.40;;;5.00;;
11568;SDS011;5840;46.894;15.542;2023-05-07T10:18:30;5.00;;;4.70;;
11568;SDS011;5840;46.894;15.542;2023-05-07T10:20:59;4.87;;;4.57;;
11568;SDS011;5840;46.894;15.542;2023-05-07T10:23:30;4.93;;;4.63;;
11568;SDS011;5840;46.894;15.542;2023-05-07T10:25:58;5.20;;;4.80;;
11568;SDS011;5840;46.894;15.542;2023-05-07T10:28:27;4.93;;;4.63;;
11568;SDS011;5840;46.894;15.542;2023-05-07T10:31:00;4.63;;;4.33;;
11568;SDS011;5840;46.894;15.542;2023-05-07T10:33:34;4.33;;;4.13;;
11568;SDS011;5840;46.894;15.542;2023-05-07T10:36:04;4.73;;;4.43;;
11568;SDS011;5840;46.894;15.542;2023-05-07T10:38:33;5.00;;;4.60;;
11568;SDS011;5840;46.894;15.542;2023-05-07T10:41:00;5.00;;;4.60;;
11568;SDS011;5840;46.894;15.542;2023-05-07T10:43:38;4.77;;;4.47;;
11568;SDS011;5840;46.894;15.542;2023-05-07T10:46:11;5.63;;;5.23;;
11568;SDS011;5840;46.894;15.542;2023-05-07T10:51:33;5.07;;;4.77;;
11568;SDS011;5840;46.894;15.542;2023-05-07T10:56:59;5.20;;;4.90;;
11568;SDS011;5840;46.894;15.542;2023-05-07T11:00:03;5.13;;;4.73;;
11568;SDS011;5840;46.894;15.542;2023-05-07T11:03:06;5.03;;;4.73;;
11568;SDS011;5840;46.894;15.542;2023-05-07T11:05:33;5.00;;;4.70;;
11568;SDS011;5840;46.894;15.542;2023-05-07T11:08:01;4.80;;;4.50;;
11568;SDS011;5840;46.894;15.542;2023-05-07T11:13:15;5.33;;;5.03;;
11568;SDS011;5840;46.894;15.542;2023-05-07T11:15:43;5.20;;;4.77;;
11568;SDS011;5840;46.894;15.542;2023-05-07T11:18:11;5.83;;;5.47;;
11568;SDS011;5840;46.894;15.542;2023-05-07T11:20:56;5.40;;;5.10;;
11568;SDS011;5840;46.894;15.542;2023-05-07T11:26:23;5.43;;;5.03;;
11568;SDS011;5840;46.894;15.542;2023-05-07T11:28:52;5.17;;;4.87;;
11568;SDS011;5840;46.894;15.542;2023-05-07T11:31:23;5.27;;;4.97;;
11568;SDS011;5840;46.894;15.542;2023-05-07T11:33:52;5.60;;;5.20;;
11568;SDS011;5840;46.894;15.542;2023-05-07T11:36:20;5.90;;;5.50;;
11568;SDS011;5840;46.894;15.542;2023-05-07T11:38:48;5.90;;;5.50;;
11568;SDS011;5840;46.894;15.542;2023-05-07T11:41:16;5.53;;;5.20;;
11568;SDS011;5840;46.894;15.542;2023-05-07T11:43:55;6.63;;;6.23;;
11568;SDS011;5840;46.894;15.542;2023-05-07T11:46:24;5.87;;;5.47;;
11568;SDS011;5840;46.894;15.542;2023-05-07T11:48:51;5.27;;;4.97;;
11568;SDS011;5840;46.894;15.542;2023-05-07T11:51:18;5.60;;;5.20;;
11568;SDS011;5840;46.894;15.542;2023-05-07T11:53:46;4.80;;;4.40;;
11568;SDS011;5840;46.894;15.542;2023-05-07T11:56:14;5.37;;;5.07;;
11568;SDS011;5840;46.894;15.542;2023-05-07T11:58:42;5.10;;;4.80;;
11568;SDS011;5840;46.894;15.542;2023-05-07T12:01:11;5.20;;;4.80;;
11568;SDS011;5840;46.894;15.542;2023-05-07T12:03:40;5.13;;;4.73;;
11568;SDS011;5840;46.894;15.542;2023-05-07T12:06:09;5.77;;;5.27;;
11568;SDS011;5840;46.894;15.542;2023-05-07T12:08:36;5.40;;;5.00;;
11568;SDS011;5840;46.894;15.542;2023-05-07T12:11:05;5.77;;;5.37;;
11568;SDS011;5840;46.894;15.542;2023-05-07T12:13:34;5.90;;;5.43;;
11568;SDS011;5840;46.894;15.542;2023-05-07T12:16:01;5.83;;;5.37;;
11568;SDS011;5840;46.894;15.542;2023-05-07T12:18:30;6.13;;;5.73;;
11568;SDS011;5840;46.894;15.542;2023-05-07T12:20:57;6.20;;;5.80;;
11568;SDS011;5840;46.894;15.542;2023-05-07T12:23:25;5.70;;;5.30;;
11568;SDS011;5840;46.894;15.542;2023-05-07T12:25:53;5.70;;;5.20;;
11568;SDS011;5840;46.894;15.542;2023-05-07T12:28:19;5.27;;;4.97;;
11568;SDS011;5840;46.894;15.542;2023-05-07T12:30:47;5.43;;;5.13;;
11568;SDS011;5840;46.894;15.542;2023-05-07T12:33:16;5.50;;;5.10;;
11568;SDS011;5840;46.894;15.542;2023-05-07T12:35:47;5.10;;;4.80;;
11568;SDS011;5840;46.894;15.542;2023-05-07T12:38:16;5.77;;;5.37;;
11568;SDS011;5840;46.894;15.542;2023-05-07T12:40:44;5.43;;;5.10;;
11568;SDS011;5840;46.894;15.542;2023-05-07T12:43:16;5.37;;;5.07;;
11568;SDS011;5840;46.894;15.542;2023-05-07T12:45:43;5.93;;;5.53;;
11568;SDS011;5840;46.894;15.542;2023-05-07T12:48:11;5.63;;;5.33;;
11568;SDS011;5840;46.894;15.542;2023-05-07T12:50:38;5.17;;;4.87;;
11568;SDS011;5840;46.894;15.542;2023-05-07T12:53:07;5.13;;;4.73;;
11568;SDS011;5840;46.894;15.542;2023-05-07T12:55:42;5.60;;;5.30;;
11568;SDS011;5840;46.894;15.542;2023-05-07T12:58:18;5.60;;;5.30;;
11568;SDS011;5840;46.894;15.542;2023-05-07T13:00:47;5.27;;;4.87;;
11568;SDS011;5840;46.894;15.542;2023-05-07T13:03:21;5.70;;;5.20;;
11568;SDS011;5840;46.894;15.542;2023-05-07T13:05:50;5.23;;;4.83;;
11568;SDS011;5840;46.894;15.542;2023-05-07T13:08:25;5.07;;;4.77;;
11568;SDS011;5840;46.894;15.542;2023-05-07T13:10:53;4.70;;;4.40;;
11568;SDS011;5840;46.894;15.542;2023-05-07T13:13:20;5.30;;;5.00;;
11568;SDS011;5840;46.894;15.542;2023-05-07T13:15:47;5.23;;;4.93;;
11568;SDS011;5840;46.894;15.542;2023-05-07T13:18:14;5.60;;;5.20;;
11568;SDS011;5840;46.894;15.542;2023-05-07T13:20:41;5.30;;;4.90;;
11568;SDS011;5840;46.894;15.542;2023-05-07T13:23:08;5.27;;;4.87;;
11568;SDS011;5840;46.894;15.542;2023-05-07T13:25:36;4.90;;;4.50;;
11568;SDS011;5840;46.894;15.542;2023-05-07T13:28:03;5.20;;;4.80;;
11568;SDS011;5840;46.894;15.542;2023-05-07T13:30:30;5.17;;;4.87;;
11568;SDS011;5840;46.894;15.542;2023-05-07T13:32:57;5.60;;;5.20;;
11568;SDS011;5840;46.894;15.542;2023-05-07T13:35:24;5.03;;;4.67;;
11568;SDS011;5840;46.894;15.542;2023-05-07T13:37:51;5.37;;;5.07;;
11568;SDS011;5840;46.894;15.542;2023-05-07T13:40:19;5.30;;;4.90;;
11568;SDS011;5840;46.894;15.542;2023-05-07T13:42:48;5.63;;;5.13;;
11568;SDS011;5840;46.894;15.542;2023-05-07T13:45:15;5.30;;;5.00;;
11568;SDS011;5840;46.894;15.542;2023-05-07T13:47:42;5.70;;;5.20;;
11568;SDS011;5840;46.894;15.542;2023-05-07T13:50:09;5.47;;;5.17;;
11568;SDS011;5840;46.894;15.542;2023-05-07T13:52:38;5.23;;;4.90;;
11568;SDS011;5840;46.894;15.542;2023-05-07T13:55:08;5.17;;;4.80;;
11568;SDS011;5840;46.894;15.542;2023-05-07T13:57:35;5.20;;;4.90;;
11568;SDS011;5840;46.894;15.542;2023-05-07T14:00:05;4.83;;;4.50;;
11568;SDS011;5840;46.894;15.542;2023-05-07T14:02:33;4.90;;;4.70;;
11568;SDS011;5840;46.894;15.542;2023-05-07T14:05:00;5.30;;;5.00;;
11568;SDS011;5840;46.894;15.542;2023-05-07T14:07:27;8.80;;;5.97;;
11568;SDS011;5840;46.894;15.542;2023-05-07T14:09:54;13.17;;;7.90;;
11568;SDS011;5840;46.894;15.542;2023-05-07T14:12:21;14.17;;;7.43;;
11568;SDS011;5840;46.894;15.542;2023-05-07T14:14:48;8.97;;;7.37;;
11568;SDS011;5840;46.894;15.542;2023-05-07T14:17:17;8.40;;;7.53;;
11568;SDS011;5840;46.894;15.542;2023-05-07T14:19:45;7.43;;;6.00;;
11568;SDS011;5840;46.894;15.542;2023-05-07T14:22:12;7.33;;;6.60;;
11568;SDS011;5840;46.894;15.542;2023-05-07T14:24:39;13.70;;;12.60;;
11568;SDS011;5840;46.894;15.542;2023-05-07T14:27:06;17.80;;;9.23;;
11568;SDS011;5840;46.894;15.542;2023-05-07T14:29:33;9.80;;;8.73;;
11568;SDS011;5840;46.894;15.542;2023-05-07T14:32:01;16.63;;;9.27;;
11568;SDS011;5840;46.894;15.542;2023-05-07T14:34:31;10.80;;;9.60;;
11568;SDS011;5840;46.894;15.542;2023-05-07T14:36:59;11.33;;;10.13;;
11568;SDS011;5840;46.894;15.542;2023-05-07T14:39:26;11.90;;;10.70;;
11568;SDS011;5840;46.894;15.542;2023-05-07T14:41:53;11.80;;;10.83;;
11568;SDS011;5840;46.894;15.542;2023-05-07T14:44:21;12.47;;;11.17;;
11568;SDS011;5840;46.894;15.542;2023-05-07T14:46:48;13.30;;;12.03;;
11568;SDS011;5840;46.894;15.542;2023-05-07T14:49:14;14.93;;;13.17;;
11568;SDS011;5840;46.894;15.542;2023-05-07T14:51:44;14.20;;;12.90;;
11568;SDS011;5840;46.894;15.542;2023-05-07T14:54:11;15.00;;;13.77;;
11568;SDS011;5840;46.894;15.542;2023-05-07T14:56:38;15.73;;;14.20;;
11568;SDS011;5840;46.894;15.542;2023-05-07T14:59:05;15.03;;;13.57;;